Time;durP1;ratioP1;P1;durP2;ratioP2;P2;SDS_P1;SDS_P2;PMS_P1;PMS_P2;Temp;Humidity;BMP_temperature;BMP_pressure;BME280_temperature;BME280_humidity;BME280_pressure;Samples;Min_cycle;Max_cycle;Signal;HPM_P1;HPM_P2
2023/04/22 00:02:15;;;;;;;14.02;9.40;;;12.70;99.90;;;;;;5039260;28;20103;-77
2023/04/22 00:04:48;;;;;;;11.20;10.02;;;12.80;99.90;;;;;;5053683;28;20085;-76
2023/04/22 00:07:14;;;;;;;11.23;10.23;;;12.80;99.90;;;;;;5040944;28;20589;-77
2023/04/22 00:09:41;;;;;;;11.35;10.15;;;12.80;99.90;;;;;;5052300;28;20045;-77
2023/04/22 00:12:08;;;;;;;11.00;9.85;;;12.70;99.90;;;;;;5092181;28;20200;-77
2023/04/22 00:14:34;;;;;;;12.35;11.05;;;12.70;99.90;;;;;;5046632;28;20048;-77
2023/04/22 00:17:00;;;;;;;10.20;9.23;;;12.60;99.90;;;;;;5052346;28;20047;-77
2023/04/22 00:19:27;;;;;;;11.48;9.70;;;12.60;99.90;;;;;;5050642;28;20044;-77
2023/04/22 00:21:52;;;;;;;9.77;8.77;;;12.60;99.90;;;;;;5044891;28;20098;-77
2023/04/22 00:24:18;;;;;;;11.75;10.52;;;12.60;99.90;;;;;;5044666;28;20061;-77
2023/04/22 00:26:44;;;;;;;13.02;9.85;;;12.60;99.90;;;;;;5054554;28;20048;-77
2023/04/22 00:29:09;;;;;;;12.45;11.25;;;12.50;99.90;;;;;;5058160;28;20099;-77
2023/04/22 00:31:35;;;;;;;11.23;10.02;;;12.40;99.90;;;;;;5057781;28;20607;-77
2023/04/22 00:34:01;;;;;;;10.80;9.70;;;12.30;99.90;;;;;;5055371;28;20040;-77
2023/04/22 00:36:26;;;;;;;10.30;9.30;;;12.20;99.90;;;;;;5056942;28;20061;-77
2023/04/22 00:38:52;;;;;;;10.75;9.65;;;12.10;99.90;;;;;;5059739;28;20077;-77
2023/04/22 00:41:19;;;;;;;11.00;9.90;;;12.10;99.90;;;;;;5045802;28;20053;-77
2023/04/22 00:43:45;;;;;;;11.60;9.60;;;12.00;99.90;;;;;;5057934;28;20032;-77
2023/04/22 00:46:11;;;;;;;11.07;9.77;;;11.90;99.90;;;;;;5058582;28;20055;-77
2023/04/22 00:48:37;;;;;;;10.77;9.00;;;11.70;99.90;;;;;;5054948;28;20053;-77
2023/04/22 00:51:03;;;;;;;10.30;9.32;;;11.50;99.90;;;;;;5049311;28;20048;-77
2023/04/22 00:53:28;;;;;;;10.40;9.40;;;11.40;99.90;;;;;;5063367;28;20170;-77
2023/04/22 00:55:54;;;;;;;10.82;9.35;;;11.30;99.90;;;;;;5060588;28;20077;-77
2023/04/22 00:58:21;;;;;;;10.43;9.43;;;12.00;99.90;;;;;;5062532;28;20625;-76
2023/04/22 01:00:47;;;;;;;12.00;10.73;;;11.20;99.90;;;;;;5059829;28;20055;-76
2023/04/22 01:03:14;;;;;;;12.18;10.95;;;11.10;99.90;;;;;;5053010;28;20045;-77
2023/04/22 01:05:41;;;;;;;11.13;10.10;;;11.10;99.90;;;;;;5055331;28;20052;-77
2023/04/22 01:08:06;;;;;;;11.57;10.50;;;11.10;99.90;;;;;;5055764;28;20580;-77
2023/04/22 01:10:32;;;;;;;11.82;9.35;;;11.10;99.90;;;;;;5063197;28;20059;-77
2023/04/22 01:12:58;;;;;;;10.80;9.68;;;11.10;99.90;;;;;;5060835;28;20072;-77
2023/04/22 01:15:24;;;;;;;9.90;9.00;;;11.00;99.90;;;;;;5061665;28;20734;-77
2023/04/22 01:17:52;;;;;;;11.65;10.45;;;11.00;99.90;;;;;;5061792;28;20045;-77
2023/04/22 01:20:18;;;;;;;10.07;9.18;;;11.00;99.90;;;;;;5049691;28;20047;-76
2023/04/22 01:22:45;;;;;;;13.70;11.32;;;11.00;99.90;;;;;;5055129;28;20068;-76
2023/04/22 01:25:11;;;;;;;14.63;10.38;;;11.00;99.90;;;;;;5055962;28;20091;-76
2023/04/22 01:27:38;;;;;;;10.73;9.63;;;11.00;99.90;;;;;;5051119;28;20147;-77
2023/04/22 01:30:06;;;;;;;13.82;11.85;;;11.00;99.90;;;;;;5048569;28;20087;-76
2023/04/22 01:32:32;;;;;;;13.23;11.80;;;11.00;99.90;;;;;;5043492;28;20056;-77
2023/04/22 01:34:58;;;;;;;16.00;13.10;;;10.90;99.90;;;;;;5057557;28;20120;-76
2023/04/22 01:37:24;;;;;;;16.48;12.63;;;10.80;99.90;;;;;;5049713;28;20124;-77
2023/04/22 01:39:50;;;;;;;13.38;12.15;;;10.70;99.90;;;;;;5062687;28;20048;-76
2023/04/22 01:42:16;;;;;;;11.77;10.43;;;10.70;99.90;;;;;;5061081;28;20059;-77
2023/04/22 01:44:42;;;;;;;13.30;11.30;;;10.70;99.90;;;;;;5056326;28;20049;-77
2023/04/22 01:47:08;;;;;;;12.95;11.63;;;10.70;99.90;;;;;;5055992;28;20489;-77
2023/04/22 01:49:33;;;;;;;13.50;11.38;;;10.70;99.90;;;;;;5061400;28;20053;-77
2023/04/22 01:52:00;;;;;;;11.32;10.27;;;10.70;99.90;;;;;;5059342;28;20056;-77
2023/04/22 01:54:26;;;;;;;12.00;10.80;;;10.70;99.90;;;;;;5052962;28;20056;-76
2023/04/22 01:56:53;;;;;;;12.35;10.75;;;10.80;99.90;;;;;;5061576;28;20048;-77
2023/04/22 01:59:20;;;;;;;13.07;11.82;;;10.80;99.90;;;;;;5060166;28;20099;-76
2023/04/22 02:01:46;;;;;;;11.27;10.23;;;10.80;99.90;;;;;;5062167;28;20052;-77
2023/04/22 02:04:12;;;;;;;12.43;11.13;;;10.80;99.90;;;;;;5046160;28;20101;-77
2023/04/22 02:06:38;;;;;;;12.63;10.95;;;10.80;99.90;;;;;;5054530;28;20739;-76
2023/04/22 02:09:03;;;;;;;12.52;11.32;;;10.80;99.90;;;;;;5057469;28;20133;-77
2023/04/22 02:11:29;;;;;;;10.82;9.82;;;10.80;99.90;;;;;;5043780;28;20079;-76
2023/04/22 02:13:55;;;;;;;12.88;10.63;;;10.80;99.90;;;;;;5054062;28;20556;-76
2023/04/22 02:16:21;;;;;;;11.93;10.80;;;10.70;99.90;;;;;;5060658;28;20485;-76
2023/04/22 02:18:47;;;;;;;11.18;10.13;;;10.80;99.90;;;;;;5055665;28;20572;-76
2023/04/22 02:21:13;;;;;;;12.48;11.27;;;10.70;99.90;;;;;;5048498;28;20048;-77
2023/04/22 02:23:39;;;;;;;12.75;10.88;;;10.70;99.90;;;;;;5056327;28;20828;-77
2023/04/22 02:26:05;;;;;;;11.27;9.57;;;10.60;99.90;;;;;;5048270;28;20102;-77
2023/04/22 02:28:30;;;;;;;11.27;10.13;;;10.60;99.90;;;;;;5061735;28;20178;-77
2023/04/22 02:30:56;;;;;;;14.13;11.50;;;10.70;99.90;;;;;;5061726;28;20178;-76
2023/04/22 02:33:22;;;;;;;13.98;12.52;;;10.60;99.90;;;;;;5053232;28;20045;-77
2023/04/22 02:35:48;;;;;;;12.10;10.95;;;10.60;99.90;;;;;;5060884;28;20048;-76
2023/04/22 02:38:13;;;;;;;13.40;12.10;;;10.70;99.90;;;;;;5057345;28;20079;-76
2023/04/22 02:40:39;;;;;;;11.95;10.88;;;10.70;99.90;;;;;;5062046;28;20063;-76
2023/04/22 02:43:05;;;;;;;14.15;12.25;;;10.60;99.90;;;;;;5056583;28;20797;-76
2023/04/22 02:45:31;;;;;;;13.23;11.82;;;10.50;99.90;;;;;;5061691;28;20049;-77
2023/04/22 02:47:57;;;;;;;13.00;11.70;;;10.50;99.90;;;;;;5056963;28;20117;-76
2023/04/22 02:50:23;;;;;;;12.95;11.45;;;10.40;99.90;;;;;;5059967;28;20083;-76
2023/04/22 02:52:48;;;;;;;12.18;10.82;;;10.50;99.90;;;;;;5045168;28;20075;-77
2023/04/22 02:55:14;;;;;;;14.30;12.75;;;10.40;99.90;;;;;;5051027;28;20044;-76
2023/04/22 02:57:40;;;;;;;12.90;11.63;;;10.40;99.90;;;;;;5057174;28;20571;-76
2023/04/22 03:00:07;;;;;;;13.23;11.73;;;10.40;99.90;;;;;;5044042;28;20045;-76
2023/04/22 03:02:32;;;;;;;12.40;11.27;;;10.30;99.90;;;;;;5055085;28;20055;-76
2023/04/22 03:04:59;;;;;;;14.38;12.98;;;10.20;99.90;;;;;;5057869;28;20045;-76
2023/04/22 03:07:25;;;;;;;13.25;11.95;;;10.20;99.90;;;;;;5060023;28;20147;-76
2023/04/22 03:09:51;;;;;;;11.82;10.75;;;10.20;99.90;;;;;;5060166;28;20052;-76
2023/04/22 03:12:16;;;;;;;12.00;11.00;;;10.10;99.90;;;;;;5060150;28;21150;-76
2023/04/22 03:14:42;;;;;;;12.40;11.07;;;10.10;99.90;;;;;;5054608;28;20055;-76
2023/04/22 03:17:08;;;;;;;11.80;10.50;;;10.10;99.90;;;;;;5057177;28;20545;-77
2023/04/22 03:19:33;;;;;;;13.30;12.00;;;10.10;99.90;;;;;;5058511;28;20055;-76
2023/04/22 03:21:59;;;;;;;13.43;11.02;;;10.00;99.90;;;;;;5059152;28;20052;-76
2023/04/22 03:24:25;;;;;;;11.52;10.43;;;10.00;99.90;;;;;;5060346;28;20056;-76
2023/04/22 03:26:50;;;;;;;12.75;11.43;;;10.00;99.90;;;;;;5055599;28;20037;-76
2023/04/22 03:29:16;;;;;;;11.70;10.57;;;10.00;99.90;;;;;;5091921;28;20592;-77
2023/04/22 03:31:42;;;;;;;10.98;9.93;;;10.00;99.90;;;;;;5045654;28;20416;-76
2023/04/22 03:34:07;;;;;;;10.23;9.25;;;9.90;99.90;;;;;;5056840;28;20041;-76
2023/04/22 03:36:33;;;;;;;11.10;10.02;;;9.80;99.90;;;;;;5053620;28;20052;-76
2023/04/22 03:38:59;;;;;;;9.60;8.70;;;9.90;99.90;;;;;;5058505;28;20041;-76
2023/04/22 03:41:25;;;;;;;11.98;10.77;;;9.90;99.90;;;;;;5058541;28;20516;-76
2023/04/22 03:43:51;;;;;;;10.40;9.40;;;9.80;99.90;;;;;;5050839;28;20398;-76
2023/04/22 03:46:17;;;;;;;10.00;9.07;;;9.70;99.90;;;;;;5058135;28;20054;-76
2023/04/22 03:48:43;;;;;;;9.43;8.60;;;9.70;99.90;;;;;;5056868;28;20093;-76
2023/04/22 03:51:08;;;;;;;11.02;10.05;;;9.80;99.90;;;;;;5052733;28;20094;-76
2023/04/22 03:53:34;;;;;;;9.35;8.52;;;9.70;99.90;;;;;;5051157;28;20056;-76
2023/04/22 03:56:00;;;;;;;10.38;9.38;;;9.60;99.90;;;;;;5059490;28;20054;-76
2023/04/22 03:58:25;;;;;;;12.80;10.80;;;9.50;99.90;;;;;;5058831;28;20052;-76
2023/04/22 04:00:51;;;;;;;12.15;11.05;;;9.50;99.90;;;;;;5060823;28;20049;-76
2023/04/22 04:03:17;;;;;;;17.65;10.70;;;9.50;99.90;;;;;;5046829;28;20094;-76
2023/04/22 04:05:42;;;;;;;13.60;12.30;;;9.50;99.90;;;;;;5059984;28;20056;-76
2023/04/22 04:08:08;;;;;;;12.77;11.55;;;9.60;99.90;;;;;;5040954;28;20098;-75
2023/04/22 04:10:35;;;;;;;13.20;10.38;;;9.60;99.90;;;;;;5052767;28;20055;-76
2023/04/22 04:13:01;;;;;;;13.27;11.98;;;9.60;99.90;;;;;;5047112;28;20055;-76
2023/04/22 04:15:26;;;;;;;10.55;9.27;;;9.50;99.90;;;;;;5058918;28;20044;-76
2023/04/22 04:17:54;;;;;;;7.05;6.45;;;9.50;99.90;;;;;;5059913;28;20198;-76
2023/04/22 04:20:20;;;;;;;31.95;8.38;;;9.40;99.90;;;;;;5058749;28;20052;-76
2023/04/22 04:22:46;;;;;;;6.68;5.97;;;9.40;99.90;;;;;;5060475;28;20056;-76
2023/04/22 04:25:11;;;;;;;7.00;6.30;;;9.30;99.90;;;;;;5063236;28;20044;-76
2023/04/22 04:27:40;;;;;;;8.48;7.68;;;9.10;99.90;;;;;;5063354;28;20822;-76
2023/04/22 04:30:07;;;;;;;10.23;9.23;;;8.90;99.90;;;;;;5053924;28;20122;-76
2023/04/22 04:32:33;;;;;;;8.70;7.90;;;9.20;99.90;;;;;;5061263;28;20044;-76
2023/04/22 04:35:00;;;;;;;8.27;7.57;;;8.70;99.90;;;;;;5058792;28;20087;-76
2023/04/22 04:37:26;;;;;;;12.18;11.00;;;8.60;99.90;;;;;;5058710;28;20049;-76
2023/04/22 04:39:52;;;;;;;11.98;10.88;;;8.60;99.90;;;;;;5058262;28;20094;-76
2023/04/22 04:42:19;;;;;;;10.35;9.38;;;8.60;99.90;;;;;;5059792;28;20068;-76
2023/04/22 04:44:46;;;;;;;10.60;9.68;;;8.60;99.90;;;;;;5060466;28;20374;-76
2023/04/22 04:47:13;;;;;;;13.95;12.55;;;8.60;99.90;;;;;;5060172;28;20053;-76
2023/04/22 04:49:39;;;;;;;12.73;11.43;;;8.60;99.90;;;;;;5058738;28;20920;-76
2023/04/22 04:52:08;;;;;;;14.68;12.50;;;8.70;99.90;;;;;;5057479;28;20048;-76
2023/04/22 04:54:34;;;;;;;13.38;12.07;;;8.70;99.90;;;;;;5055676;28;20048;-76
2023/04/22 04:57:00;;;;;;;14.63;13.18;;;8.70;99.90;;;;;;5060826;28;20056;-76
2023/04/22 04:59:26;;;;;;;18.55;14.73;;;8.80;99.90;;;;;;5047178;28;20053;-76
2023/04/22 05:01:52;;;;;;;14.55;13.13;;;8.80;99.90;;;;;;5047626;28;20578;-76
2023/04/22 05:04:18;;;;;;;11.55;10.35;;;8.80;99.90;;;;;;5058467;28;20036;-76
2023/04/22 05:06:44;;;;;;;11.93;10.85;;;8.80;99.90;;;;;;5059201;28;20056;-76
2023/04/22 05:09:10;;;;;;;13.10;11.82;;;8.80;99.90;;;;;;5056793;28;20049;-76
2023/04/22 05:11:35;;;;;;;12.45;11.40;;;8.80;99.90;;;;;;5049065;28;20052;-76
2023/04/22 05:14:01;;;;;;;12.02;10.82;;;8.80;99.90;;;;;;5057434;28;20041;-76
2023/04/22 05:16:28;;;;;;;12.65;11.55;;;8.80;99.90;;;;;;5057259;28;20055;-76
2023/04/22 05:18:53;;;;;;;12.55;11.25;;;8.80;99.90;;;;;;5057399;28;20040;-77
2023/04/22 05:21:19;;;;;;;11.82;10.75;;;8.80;99.90;;;;;;5055604;28;20063;-76
2023/04/22 05:23:45;;;;;;;11.40;10.35;;;8.80;99.90;;;;;;5054570;28;20568;-76
2023/04/22 05:26:11;;;;;;;11.90;10.73;;;8.90;99.90;;;;;;5045461;28;20851;-76
2023/04/22 05:28:37;;;;;;;12.25;11.00;;;8.90;99.90;;;;;;5047849;28;20124;-76
2023/04/22 05:31:03;;;;;;;12.18;10.93;;;8.90;99.90;;;;;;5044333;28;20067;-76
2023/04/22 05:33:29;;;;;;;12.50;11.38;;;9.00;99.90;;;;;;5059773;28;20167;-76
2023/04/22 05:35:55;;;;;;;14.43;12.25;;;9.00;99.90;;;;;;5058420;28;20054;-76
2023/04/22 05:38:20;;;;;;;12.55;11.25;;;9.00;99.90;;;;;;5060032;28;20409;-76
2023/04/22 05:40:46;;;;;;;16.25;14.38;;;9.10;99.90;;;;;;5061180;28;20056;-76
2023/04/22 05:43:12;;;;;;;16.85;15.15;;;9.30;99.90;;;;;;5053657;28;20146;-76
2023/04/22 05:45:38;;;;;;;15.40;13.82;;;9.40;99.90;;;;;;5043399;28;20053;-76
2023/04/22 05:48:03;;;;;;;16.05;14.25;;;9.40;99.90;;;;;;5052749;28;20183;-77
2023/04/22 05:50:29;;;;;;;15.32;13.73;;;9.50;99.90;;;;;;5055481;28;20105;-77
2023/04/22 05:52:55;;;;;;;15.20;13.70;;;9.60;99.90;;;;;;5052778;28;20045;-77
2023/04/22 05:55:20;;;;;;;16.17;13.60;;;9.70;99.90;;;;;;5051047;28;20240;-77
2023/04/22 05:57:46;;;;;;;14.90;13.05;;;9.70;99.90;;;;;;5059731;28;20050;-77
2023/04/22 06:00:12;;;;;;;16.17;14.43;;;9.80;99.90;;;;;;5050919;28;20048;-77
2023/04/22 06:02:38;;;;;;;15.55;13.70;;;9.80;99.90;;;;;;5054317;28;20132;-77
2023/04/22 06:05:04;;;;;;;15.85;14.18;;;9.80;99.90;;;;;;5061176;28;20412;-77
2023/04/22 06:07:30;;;;;;;16.48;14.95;;;9.90;99.90;;;;;;5047347;28;20084;-76
2023/04/22 06:09:56;;;;;;;17.35;15.43;;;10.00;99.90;;;;;;5057110;28;20849;-76
2023/04/22 06:12:21;;;;;;;17.02;15.32;;;10.10;99.90;;;;;;5045552;28;20486;-77
2023/04/22 06:14:47;;;;;;;17.13;15.43;;;10.10;99.90;;;;;;5045844;28;20055;-77
2023/04/22 06:17:12;;;;;;;16.73;15.10;;;10.10;99.90;;;;;;5046638;28;20056;-77
2023/04/22 06:19:38;;;;;;;15.90;14.30;;;10.20;99.90;;;;;;5057956;28;20052;-77
2023/04/22 06:22:04;;;;;;;19.05;17.23;;;10.20;99.90;;;;;;5050980;28;20159;-77
2023/04/22 06:24:30;;;;;;;17.75;15.85;;;10.30;99.90;;;;;;5044822;28;20104;-77
2023/04/22 06:26:56;;;;;;;16.15;14.65;;;10.40;99.90;;;;;;5058440;28;20497;-77
2023/04/22 06:29:23;;;;;;;17.58;15.40;;;10.50;99.90;;;;;;5050405;28;20497;-77
2023/04/22 06:31:48;;;;;;;16.05;14.45;;;10.60;99.90;;;;;;5053471;28;20607;-78
2023/04/22 06:34:14;;;;;;;16.25;14.68;;;10.70;99.90;;;;;;5058976;28;20050;-78
2023/04/22 06:36:40;;;;;;;16.70;14.60;;;10.90;99.90;;;;;;5058174;28;20062;-76
2023/04/22 06:39:06;;;;;;;16.23;14.55;;;10.90;99.90;;;;;;5060640;28;20044;-76
2023/04/22 06:41:32;;;;;;;17.58;14.82;;;11.00;99.90;;;;;;5056748;28;20911;-77
2023/04/22 06:43:58;;;;;;;15.38;13.75;;;10.90;99.90;;;;;;5055222;28;20044;-79
2023/04/22 06:46:24;;;;;;;16.45;14.60;;;11.00;99.90;;;;;;5061366;28;20109;-77
2023/04/22 06:48:49;;;;;;;14.70;13.20;;;11.00;99.90;;;;;;5049506;28;20128;-77
2023/04/22 06:51:15;;;;;;;15.70;14.20;;;11.10;99.90;;;;;;5053629;28;20269;-77
2023/04/22 06:53:41;;;;;;;22.20;19.75;;;11.10;99.90;;;;;;5059217;28;20078;-76
2023/04/22 06:56:06;;;;;;;31.23;27.92;;;11.10;99.90;;;;;;5053433;28;20556;-77
2023/04/22 06:58:32;;;;;;;49.25;42.30;;;11.20;99.90;;;;;;5052211;28;20044;-77
2023/04/22 07:00:58;;;;;;;44.00;39.20;;;11.30;99.90;;;;;;5051497;28;20058;-77
2023/04/22 07:03:24;;;;;;;24.30;21.73;;;11.40;99.90;;;;;;5046671;28;20480;-77
2023/04/22 07:05:50;;;;;;;18.80;17.00;;;11.40;99.90;;;;;;5050878;28;20044;-77
2023/04/22 07:08:16;;;;;;;16.88;15.10;;;11.50;99.90;;;;;;5045554;28;20057;-77
2023/04/22 07:10:42;;;;;;;15.07;13.63;;;11.60;99.90;;;;;;5046232;28;20059;-77
2023/04/22 07:13:07;;;;;;;13.30;11.90;;;11.70;99.90;;;;;;5042610;28;20438;-77
2023/04/22 07:15:33;;;;;;;14.70;13.20;;;11.70;99.90;;;;;;5049481;28;20137;-77
2023/04/22 07:17:59;;;;;;;15.57;12.82;;;11.80;99.90;;;;;;5044482;28;20040;-78
2023/04/22 07:20:24;;;;;;;15.65;13.02;;;11.90;99.90;;;;;;5056563;28;20059;-77
2023/04/22 07:22:51;;;;;;;15.35;13.85;;;11.90;99.90;;;;;;5050196;28;20090;-78
2023/04/22 07:25:18;;;;;;;14.60;13.10;;;12.00;99.90;;;;;;5038563;28;20076;-77
2023/04/22 07:27:43;;;;;;;14.38;12.90;;;12.10;99.90;;;;;;5050367;28;20174;-78
2023/04/22 07:30:10;;;;;;;18.20;14.80;;;12.20;99.90;;;;;;5039086;28;20761;-77
2023/04/22 07:32:36;;;;;;;14.35;12.85;;;12.30;99.90;;;;;;5039011;28;20954;-77
2023/04/22 07:35:02;;;;;;;15.65;12.30;;;12.40;99.90;;;;;;5044498;28;20048;-77
2023/04/22 07:37:27;;;;;;;15.43;13.05;;;12.50;99.90;;;;;;5045398;28;20053;-77
2023/04/22 07:39:53;;;;;;;15.10;12.57;;;12.60;99.90;;;;;;5058440;28;20041;-77
2023/04/22 07:42:19;;;;;;;16.35;12.15;;;12.70;99.90;;;;;;5056291;28;20405;-77
2023/04/22 07:44:45;;;;;;;13.48;12.10;;;12.80;99.90;;;;;;5057944;28;20056;-77
2023/04/22 07:47:11;;;;;;;13.73;12.27;;;12.90;99.90;;;;;;5057094;28;20071;-78
2023/04/22 07:49:37;;;;;;;13.60;11.77;;;13.00;99.90;;;;;;5057830;28;20134;-78
2023/04/22 07:52:02;;;;;;;14.77;12.27;;;13.10;99.90;;;;;;5045444;28;20131;-76
2023/04/22 07:54:28;;;;;;;14.13;12.68;;;13.30;99.90;;;;;;5038924;28;20132;-77
2023/04/22 07:56:54;;;;;;;13.02;11.73;;;13.40;99.90;;;;;;5056525;28;20040;-77
2023/04/22 07:59:19;;;;;;;12.57;11.38;;;13.50;99.90;;;;;;5058860;28;20055;-77
2023/04/22 08:01:45;;;;;;;14.15;12.55;;;13.60;99.90;;;;;;5054493;28;20572;-77
2023/04/22 08:04:11;;;;;;;13.40;11.27;;;13.60;99.90;;;;;;5059217;28;20040;-78
2023/04/22 08:06:37;;;;;;;14.23;11.35;;;13.70;99.90;;;;;;5046624;28;20124;-78
2023/04/22 08:09:03;;;;;;;12.02;10.93;;;13.80;99.90;;;;;;5042814;28;20041;-77
2023/04/22 08:11:29;;;;;;;13.02;11.05;;;13.90;99.90;;;;;;5060886;28;20088;-77
2023/04/22 08:13:54;;;;;;;13.02;11.43;;;14.00;99.90;;;;;;5053068;28;20040;-77
2023/04/22 08:16:20;;;;;;;12.55;11.27;;;14.30;99.90;;;;;;5051713;28;20480;-77
2023/04/22 08:18:46;;;;;;;12.57;11.18;;;14.60;99.90;;;;;;5057565;28;20096;-77
2023/04/22 08:21:11;;;;;;;12.30;10.55;;;14.90;99.90;;;;;;5056753;28;20044;-78
2023/04/22 08:23:37;;;;;;;13.80;10.80;;;15.20;99.90;;;;;;5054055;28;20217;-77
2023/04/22 08:26:03;;;;;;;12.98;10.48;;;15.40;99.90;;;;;;5044839;28;20060;-78
2023/04/22 08:28:29;;;;;;;12.70;11.10;;;15.70;99.90;;;;;;5057109;28;20054;-78
2023/04/22 08:30:55;;;;;;;12.13;10.02;;;16.20;99.90;;;;;;5048585;28;20044;-78
2023/04/22 08:33:20;;;;;;;14.50;10.48;;;16.70;99.90;;;;;;5058085;28;20045;-77
2023/04/22 08:35:46;;;;;;;12.63;9.77;;;17.30;99.90;;;;;;5058575;28;20044;-78
2023/04/22 08:38:12;;;;;;;11.55;8.98;;;17.60;99.90;;;;;;5056513;28;20044;-77
2023/04/22 08:40:41;;;;;;;10.00;9.00;;;18.00;99.90;;;;;;5056459;28;20049;-78
2023/04/22 08:43:08;;;;;;;12.77;8.32;;;18.30;99.90;;;;;;5055131;28;20055;-77
2023/04/22 08:45:36;;;;;;;9.77;7.78;;;18.80;99.90;;;;;;5054711;28;20055;-78
2023/04/22 08:48:03;;;;;;;9.18;7.80;;;19.10;99.90;;;;;;5056996;28;20050;-77
2023/04/22 08:50:30;;;;;;;10.38;7.93;;;19.70;99.90;;;;;;5053658;28;20044;-78
2023/04/22 08:52:56;;;;;;;9.95;8.93;;;20.00;99.90;;;;;;5043221;28;20037;-78
2023/04/22 08:55:22;;;;;;;8.85;7.95;;;20.60;99.90;;;;;;5048363;28;20058;-78
2023/04/22 08:57:49;;;;;;;9.48;7.82;;;21.10;99.90;;;;;;5044658;28;20072;-78
2023/04/22 09:00:17;;;;;;;10.38;7.85;;;21.00;99.90;;;;;;5045555;28;20049;-78
2023/04/22 09:02:44;;;;;;;9.07;8.18;;;21.20;99.90;;;;;;5048817;28;20044;-78
2023/04/22 09:05:13;;;;;;;7.28;6.57;;;21.70;99.90;;;;;;5045170;28;20449;-78
2023/04/22 09:07:39;;;;;;;8.85;7.95;;;22.60;99.90;;;;;;5042294;28;20504;-78
2023/04/22 09:10:07;;;;;;;8.38;7.50;;;22.20;99.90;;;;;;5052353;28;20044;-78
2023/04/22 09:12:33;;;;;;;8.07;7.28;;;22.60;99.90;;;;;;5059446;28;20036;-80
2023/04/22 09:14:58;;;;;;;8.90;7.65;;;23.10;99.90;;;;;;5056176;28;20052;-79
2023/04/22 09:17:36;;;;;;;11.07;7.60;;;23.20;99.90;;;;;;5052873;28;20151;-79
2023/04/22 09:20:04;;;;;;;9.23;6.97;;;23.20;99.90;;;;;;5056422;28;20151;-78
2023/04/22 09:22:40;;;;;;;6.90;6.30;;;23.30;99.90;;;;;;5055658;28;20049;-78
2023/04/22 09:25:20;;;;;;;8.15;6.97;;;23.60;99.40;;;;;;5054477;28;20652;-78
2023/04/22 09:27:58;;;;;;;8.23;7.10;;;23.80;99.00;;;;;;5056527;28;20469;-78
2023/04/22 09:30:32;;;;;;;9.18;7.43;;;24.10;95.40;;;;;;5049302;28;20103;-78
2023/04/22 09:33:00;;;;;;;8.63;7.20;;;24.50;97.50;;;;;;5051393;28;20056;-79
2023/04/22 09:35:29;;;;;;;8.82;6.82;;;24.60;98.50;;;;;;5058560;28;20079;-78
2023/04/22 09:37:55;;;;;;;8.73;7.05;;;25.10;98.60;;;;;;5060342;28;20348;-79
2023/04/22 09:40:21;;;;;;;8.30;7.15;;;25.50;98.60;;;;;;5053083;28;20045;-76
2023/04/22 09:42:54;;;;;;;9.60;7.50;;;25.50;97.60;;;;;;5055388;28;20059;-75
2023/04/22 09:45:30;;;;;;;7.60;6.65;;;25.70;96.80;;;;;;5063020;28;20059;-75
2023/04/22 09:48:00;;;;;;;7.93;7.18;;;25.20;95.20;;;;;;5057842;28;20052;-76
2023/04/22 09:50:27;;;;;;;9.05;8.15;;;24.60;95.40;;;;;;5060206;28;20151;-76
2023/04/22 09:53:07;;;;;;;9.27;7.90;;;23.90;96.00;;;;;;5061005;28;20041;-76
2023/04/22 09:55:39;;;;;;;7.72;6.95;;;23.10;96.10;;;;;;5060939;28;20048;-75
2023/04/22 09:58:16;;;;;;;8.68;7.88;;;22.50;96.10;;;;;;5048489;28;20058;-75
2023/04/22 10:00:55;;;;;;;6.90;6.20;;;22.20;96.50;;;;;;5062576;28;20052;-75
2023/04/22 10:03:21;;;;;;;7.95;7.15;;;22.20;96.20;;;;;;5043882;28;20604;-76
2023/04/22 10:05:47;;;;;;;9.23;7.13;;;22.30;96.70;;;;;;5061964;28;20048;-76
2023/04/22 10:08:14;;;;;;;7.80;6.32;;;22.10;96.00;;;;;;5057422;28;20078;-75
2023/04/22 10:10:40;;;;;;;7.22;6.43;;;22.20;96.40;;;;;;5062924;28;20052;-76
2023/04/22 10:13:07;;;;;;;9.73;7.20;;;22.30;96.20;;;;;;5057502;28;20037;-76
2023/04/22 10:15:34;;;;;;;7.70;6.63;;;22.30;96.00;;;;;;5062221;28;20576;-76
2023/04/22 10:18:03;;;;;;;7.22;6.53;;;22.30;96.00;;;;;;5058039;28;20515;-79
2023/04/22 10:20:30;;;;;;;7.88;7.00;;;22.40;96.10;;;;;;5060187;28;20127;-77
2023/04/22 10:22:56;;;;;;;9.23;7.45;;;22.40;95.80;;;;;;5053837;28;20045;-78
2023/04/22 10:25:26;;;;;;;8.43;6.97;;;22.40;95.70;;;;;;5050331;28;20545;-78
2023/04/22 10:28:02;;;;;;;7.60;6.65;;;22.50;94.60;;;;;;5061339;28;20056;-78
2023/04/22 10:30:32;;;;;;;6.40;5.53;;;22.90;94.70;;;;;;5063229;28;20064;-79
2023/04/22 10:33:20;;;;;;;6.47;5.88;;;23.10;93.90;;;;;;5060570;28;20477;-76
2023/04/22 10:36:18;;;;;;;7.53;6.22;;;23.00;93.60;;;;;;5063517;28;20084;-77
2023/04/22 10:38:53;;;;;;;6.88;5.47;;;23.40;93.80;;;;;;5064235;28;20382;-77
2023/04/22 10:41:24;;;;;;;6.28;5.15;;;23.70;93.30;;;;;;5058957;28;20456;-77
2023/04/22 10:44:01;;;;;;;6.93;5.55;;;24.10;93.40;;;;;;5050227;28;20048;-77
2023/04/22 10:46:30;;;;;;;8.50;6.55;;;23.80;92.10;;;;;;5054130;28;20060;-78
2023/04/22 10:48:57;;;;;;;6.68;6.00;;;23.60;92.40;;;;;;5054430;28;20052;-76
2023/04/22 10:51:45;;;;;;;7.40;6.70;;;23.30;92.50;;;;;;5046978;28;20048;-78
2023/04/22 10:54:26;;;;;;;6.15;5.13;;;23.30;92.70;;;;;;5041429;28;20049;-78
2023/04/22 10:57:17;;;;;;;7.35;6.65;;;23.00;92.60;;;;;;5054712;28;20050;-77
2023/04/22 10:59:54;;;;;;;12.57;6.55;;;22.60;93.20;;;;;;5050747;28;20063;-78
2023/04/22 11:02:21;;;;;;;8.73;5.82;;;22.40;93.30;;;;;;5060859;28;20055;-78
2023/04/22 11:04:47;;;;;;;6.53;5.80;;;22.10;93.40;;;;;;5056371;28;20720;-78
2023/04/22 11:07:25;;;;;;;6.70;5.90;;;22.00;93.60;;;;;;5056906;28;20137;-78
2023/04/22 11:10:05;;;;;;;8.23;5.60;;;22.00;93.30;;;;;;5041428;28;20427;-79
2023/04/22 11:12:37;;;;;;;5.50;4.15;;;22.00;92.80;;;;;;5049693;28;20051;-78
2023/04/22 11:15:13;;;;;;;5.78;4.60;;;21.90;92.70;;;;;;5050909;28;20122;-77
2023/04/22 11:17:42;;;;;;;6.75;4.47;;;21.80;92.40;;;;;;5056172;28;20855;-80
2023/04/22 11:20:09;;;;;;;7.07;5.30;;;21.70;92.40;;;;;;5060196;28;20090;-77
2023/04/22 11:22:40;;;;;;;5.18;4.65;;;21.60;93.30;;;;;;5052072;28;20095;-78
2023/04/22 11:25:09;;;;;;;5.93;4.22;;;21.60;93.00;;;;;;5046950;28;20056;-77
2023/04/22 11:27:35;;;;;;;5.10;4.22;;;21.80;92.80;;;;;;5060828;28;20493;-79
2023/04/22 11:30:08;;;;;;;6.00;4.85;;;21.70;92.50;;;;;;5059549;28;20044;-76
2023/04/22 11:32:34;;;;;;;;;;;21.70;92.60;;;;;;5060111;28;20102;-79
2023/04/22 11:35:10;;;;;;;6.90;5.00;;;21.70;93.20;;;;;;5055305;28;20682;-78
2023/04/22 11:38:00;;;;;;;6.70;5.45;;;21.80;92.80;;;;;;5060682;28;20155;-79
2023/04/22 11:40:37;;;;;;;8.10;5.35;;;21.80;92.70;;;;;;5050033;28;20060;-80
2023/04/22 11:43:05;;;;;;;8.07;5.82;;;21.80;92.60;;;;;;5059154;28;20040;-78
2023/04/22 11:45:34;;;;;;;5.75;5.15;;;21.80;92.70;;;;;;5059991;28;20049;-78
2023/04/22 11:48:01;;;;;;;5.82;4.72;;;21.70;93.00;;;;;;5058305;28;20040;-79
2023/04/22 11:50:29;;;;;;;4.65;4.20;;;21.60;92.80;;;;;;5048278;28;20088;-80
2023/04/22 11:52:59;;;;;;;4.68;4.22;;;21.60;92.80;;;;;;5040926;28;20763;-78
2023/04/22 11:55:34;;;;;;;7.78;5.38;;;21.60;92.80;;;;;;5048396;28;20744;-78
2023/04/22 11:58:05;;;;;;;4.82;4.40;;;21.70;92.90;;;;;;5059351;28;20056;-79
2023/04/22 12:00:35;;;;;;;5.95;4.88;;;22.00;93.40;;;;;;5053369;28;20044;-78
2023/04/22 12:03:11;;;;;;;6.00;4.88;;;22.10;92.50;;;;;;5052948;28;20045;-79
2023/04/22 12:05:45;;;;;;;5.40;4.47;;;22.20;92.30;;;;;;5049238;28;20410;-80
2023/04/22 12:08:13;;;;;;;6.68;4.50;;;22.30;92.50;;;;;;5048090;28;20149;-78
2023/04/22 12:10:44;;;;;;;4.78;3.88;;;22.30;92.40;;;;;;5048996;28;20044;-80
2023/04/22 12:13:22;;;;;;;6.78;4.63;;;22.50;92.30;;;;;;5052352;28;20043;-77
2023/04/22 12:15:52;;;;;;;5.90;4.82;;;22.50;91.60;;;;;;5041008;28;20049;-81
2023/04/22 12:18:31;;;;;;;7.28;5.55;;;22.40;91.80;;;;;;5057901;28;20041;-81
2023/04/22 12:21:07;;;;;;;7.30;5.15;;;22.40;92.60;;;;;;5055033;28;20045;-81
2023/04/22 12:23:56;;;;;;;5.55;4.07;;;22.40;92.00;;;;;;5045071;28;20164;-81
2023/04/22 12:26:24;;;;;;;4.63;4.13;;;22.30;92.50;;;;;;5047749;28;20065;-79
2023/04/22 12:28:50;;;;;;;5.82;4.53;;;22.30;93.00;;;;;;5051288;28;20494;-79
2023/04/22 12:31:16;;;;;;;6.55;4.68;;;22.30;93.10;;;;;;5037999;28;20071;-80
2023/04/22 12:33:43;;;;;;;8.43;5.75;;;22.40;93.00;;;;;;5043309;28;20044;-81
2023/04/22 12:36:09;;;;;;;5.75;4.95;;;22.20;92.60;;;;;;5051784;28;20049;-82
2023/04/22 12:38:35;;;;;;;8.88;5.50;;;22.20;93.00;;;;;;5058488;28;20053;-80
2023/04/22 12:41:03;;;;;;;6.80;5.20;;;22.40;93.10;;;;;;5056843;28;20048;-80